createdAt,value
2023-02-06T00:02:28.307Z,60.67
2023-02-06T00:04:56.725Z,60.87
2023-02-06T00:07:24.896Z,60.71
2023-02-06T00:09:52.869Z,60.58
2023-02-06T00:12:21.378Z,60.12
2023-02-06T00:14:50.948Z,60.26
2023-02-06T00:17:19.113Z,59.98
2023-02-06T00:19:47.206Z,60.31
2023-02-06T00:22:15.277Z,60.77
2023-02-06T00:24:43.324Z,60.89
2023-02-06T00:27:11.294Z,60.43
2023-02-06T00:29:39.440Z,60.14
2023-02-06T00:32:08.822Z,60.52
2023-02-06T00:34:36.925Z,60.61
2023-02-06T00:37:04.992Z,60.57
2023-02-06T00:39:33.208Z,60.06
2023-02-06T00:42:02.952Z,60.53
2023-02-06T00:44:30.953Z,60.14
2023-02-06T00:46:59.336Z,59.75
2023-02-06T00:49:30.430Z,60.31
2023-02-06T00:51:58.459Z,60.19
2023-02-06T00:54:26.714Z,60.19
2023-02-06T00:56:54.759Z,61.13
2023-02-06T00:59:22.692Z,60.93
2023-02-06T01:01:50.855Z,60.45
2023-02-06T01:04:18.892Z,60.90
2023-02-06T01:06:48.378Z,60.83
2023-02-06T01:09:16.493Z,60.28
2023-02-06T01:11:44.828Z,60.58
2023-02-06T01:14:12.761Z,60.52
2023-02-06T01:16:41.188Z,60.39
2023-02-06T01:19:09.210Z,60.51
2023-02-06T01:21:38.354Z,60.33
2023-02-06T01:24:07.949Z,60.62
2023-02-06T01:26:35.903Z,60.81
2023-02-06T01:29:04.329Z,60.57
2023-02-06T01:31:32.870Z,60.63
2023-02-06T01:34:01.846Z,60.87
2023-02-06T01:36:29.921Z,60.35
2023-02-06T01:38:58.387Z,60.21
2023-02-06T01:41:27.955Z,60.16
2023-02-06T01:44:13.482Z,59.76
2023-02-06T01:46:43.479Z,59.72
2023-02-06T01:49:16.634Z,60.02
2023-02-06T01:51:45.682Z,60.28
2023-02-06T01:54:15.623Z,60.21
2023-02-06T01:56:50.969Z,60.61
2023-02-06T01:59:19.226Z,61.43
2023-02-06T02:01:48.509Z,61.53
2023-02-06T02:04:20.483Z,61.62
2023-02-06T02:06:56.485Z,61.70
2023-02-06T02:09:25.766Z,61.46
2023-02-06T02:11:55.359Z,61.29
2023-02-06T02:14:23.660Z,61.15
2023-02-06T02:17:07.250Z,61.23
2023-02-06T02:20:17.640Z,61.30
2023-02-06T02:22:53.791Z,60.99
2023-02-06T02:25:58.006Z,61.50
2023-02-06T02:28:54.590Z,60.86
2023-02-06T02:31:59.772Z,60.97
2023-02-06T02:35:01.500Z,61.13
2023-02-06T02:37:43.022Z,61.85
2023-02-06T02:40:20.325Z,61.57
2023-02-06T02:42:54.508Z,61.03
2023-02-06T02:45:27.256Z,61.18
2023-02-06T02:48:00.112Z,60.85
2023-02-06T02:50:30.691Z,61.24
2023-02-06T02:53:00.301Z,61.11
2023-02-06T02:55:28.305Z,61.17
2023-02-06T02:58:07.414Z,60.81
2023-02-06T03:00:40.695Z,60.82
2023-02-06T03:03:11.332Z,60.61
2023-02-06T03:05:46.666Z,61.54
2023-02-06T03:08:23.552Z,61.75
2023-02-06T03:11:05.260Z,61.87
2023-02-06T03:13:36.571Z,61.66
2023-02-06T03:16:13.833Z,61.78
2023-02-06T03:18:48.904Z,61.72
2023-02-06T03:21:22.019Z,61.99
2023-02-06T03:23:54.316Z,61.07
2023-02-06T03:26:27.210Z,61.20
2023-02-06T03:28:59.775Z,61.20
2023-02-06T03:31:31.940Z,62.15
2023-02-06T03:34:07.342Z,62.06
2023-02-06T03:36:37.373Z,62.35
2023-02-06T03:39:05.755Z,62.03
2023-02-06T03:41:37.439Z,62.18
2023-02-06T03:44:09.984Z,61.84
2023-02-06T03:46:40.974Z,62.04
2023-02-06T03:49:13.666Z,61.99
2023-02-06T03:51:48.770Z,62.27
2023-02-06T03:54:21.199Z,61.96
2023-02-06T03:56:54.208Z,61.88
2023-02-06T03:59:24.881Z,61.58
2023-02-06T04:01:57.173Z,61.84
2023-02-06T04:04:29.845Z,61.38
2023-02-06T04:07:02.767Z,62.11
2023-02-06T04:09:30.940Z,62.79
2023-02-06T04:11:59.070Z,62.89
2023-02-06T04:14:27.165Z,62.73
2023-02-06T04:16:55.524Z,62.51
2023-02-06T04:19:23.877Z,62.39
2023-02-06T04:21:51.771Z,62.56
2023-02-06T04:24:21.213Z,62.38
2023-02-06T04:26:49.345Z,62.48
2023-02-06T04:29:17.482Z,62.94
2023-02-06T04:31:50.324Z,62.79
2023-02-06T04:34:18.767Z,63.00
2023-02-06T04:36:46.735Z,63.03
2023-02-06T04:39:14.925Z,63.02
2023-02-06T04:41:44.288Z,62.43
2023-02-06T04:44:12.584Z,62.86
2023-02-06T04:46:41.213Z,62.72
2023-02-06T04:49:09.176Z,62.39
2023-02-06T04:51:37.624Z,63.39
2023-02-06T04:54:06.560Z,63.37
2023-02-06T04:56:34.828Z,63.96
2023-02-06T04:59:04.472Z,64.01
2023-02-06T05:01:32.470Z,63.81
2023-02-06T05:04:00.452Z,63.64
2023-02-06T05:06:29.627Z,63.36
2023-02-06T05:08:57.945Z,63.53
2023-02-06T05:11:26.005Z,63.70
2023-02-06T05:13:54.192Z,63.62
2023-02-06T05:16:24.135Z,64.15
2023-02-06T05:18:55.492Z,64.31
2023-02-06T05:21:27.659Z,63.94
2023-02-06T05:23:55.817Z,63.78
2023-02-06T05:26:24.096Z,63.43
2023-02-06T05:28:52.041Z,63.45
2023-02-06T05:31:20.787Z,64.28
2023-02-06T05:33:52.468Z,64.53
2023-02-06T05:36:21.219Z,64.54
2023-02-06T05:38:49.911Z,64.51
2023-02-06T05:41:18.449Z,64.50
2023-02-06T05:43:46.464Z,64.11
2023-02-06T05:46:14.757Z,64.98
2023-02-06T05:48:43.272Z,65.06
2023-02-06T05:51:13.026Z,65.38
2023-02-06T05:53:41.171Z,64.98
2023-02-06T05:56:09.658Z,65.06
2023-02-06T05:58:37.923Z,65.28
2023-02-06T06:01:07.177Z,65.66
2023-02-06T06:03:35.648Z,65.57
2023-02-06T06:06:04.355Z,65.40
2023-02-06T06:08:34.536Z,65.59
2023-02-06T06:11:03.223Z,65.74
2023-02-06T06:13:31.675Z,65.99
2023-02-06T06:15:59.703Z,65.36
2023-02-06T06:18:28.034Z,65.23
2023-02-06T06:20:56.338Z,65.39
2023-02-06T06:23:24.936Z,65.72
2023-02-06T06:25:54.316Z,66.53
2023-02-06T06:28:22.459Z,66.23
2023-02-06T06:30:50.484Z,65.99
2023-02-06T06:33:19.278Z,65.87
2023-02-06T06:35:47.498Z,65.76
2023-02-06T06:38:15.740Z,65.97
2023-02-06T06:40:43.930Z,66.03
2023-02-06T06:43:13.310Z,65.79
2023-02-06T06:45:41.556Z,65.69
2023-02-06T06:48:09.519Z,65.81
2023-02-06T06:50:37.621Z,65.90
2023-02-06T06:53:05.845Z,65.48
2023-02-06T06:55:34.335Z,65.71
2023-02-06T06:58:02.988Z,66.64
2023-02-06T07:00:35.307Z,67.16
2023-02-06T07:03:03.752Z,67.05
2023-02-06T07:05:31.817Z,66.78
2023-02-06T07:07:59.956Z,66.57
2023-02-06T07:10:28.068Z,67.10
2023-02-06T07:12:56.660Z,66.59
2023-02-06T07:15:25.240Z,66.82
2023-02-06T07:17:54.640Z,66.43
2023-02-06T07:20:23.583Z,65.80
2023-02-06T07:22:51.679Z,65.72
2023-02-06T07:25:20.362Z,66.10
2023-02-06T07:27:48.762Z,66.62
2023-02-06T07:30:17.114Z,66.36
2023-02-06T07:32:45.317Z,67.17
2023-02-06T07:35:15.700Z,66.64
2023-02-06T07:37:43.646Z,66.77
2023-02-06T07:40:13.011Z,67.69
2023-02-06T07:42:41.541Z,66.99
2023-02-06T07:45:18.262Z,66.99
2023-02-06T07:47:46.450Z,66.90
2023-02-06T07:50:17.234Z,66.67
2023-02-06T07:52:45.242Z,67.62
2023-02-06T07:55:13.328Z,67.82
2023-02-06T07:57:42.514Z,68.00
2023-02-06T08:00:12.014Z,68.07
2023-02-06T08:02:40.354Z,68.75
2023-02-06T08:05:09.766Z,68.31
2023-02-06T08:07:39.206Z,68.37
2023-02-06T08:10:08.421Z,68.46
2023-02-06T08:12:36.549Z,68.65
2023-02-06T08:15:05.297Z,68.26
2023-02-06T08:17:33.662Z,68.31
2023-02-06T08:20:03.195Z,67.85
2023-02-06T08:22:31.409Z,67.97
2023-02-06T08:25:00.757Z,68.71
2023-02-06T08:27:28.876Z,68.84
2023-02-06T08:29:59.329Z,68.74
2023-02-06T08:32:27.784Z,68.86
2023-02-06T08:34:55.882Z,69.01
2023-02-06T08:37:24.654Z,69.00
2023-02-06T08:39:52.568Z,68.29
2023-02-06T08:42:21.970Z,68.44
2023-02-06T08:44:50.339Z,68.19
2023-02-06T08:47:18.397Z,68.49
2023-02-06T08:49:46.571Z,68.94
2023-02-06T08:52:14.666Z,69.01
2023-02-06T08:54:42.614Z,68.75
2023-02-06T08:57:12.583Z,68.60
2023-02-06T08:59:44.965Z,68.85
2023-02-06T09:02:13.166Z,68.33
2023-02-06T09:04:42.705Z,68.95
2023-02-06T09:07:10.738Z,68.51
2023-02-06T09:09:38.889Z,68.39
2023-02-06T09:12:07.455Z,68.65
2023-02-06T09:14:35.866Z,68.94
2023-02-06T09:17:05.865Z,69.51
2023-02-06T09:19:34.145Z,69.52
2023-02-06T09:22:02.304Z,69.82
2023-02-06T09:24:32.197Z,70.06
2023-02-06T09:27:01.093Z,70.00
2023-02-06T09:29:31.877Z,70.11
2023-02-06T09:32:00.516Z,69.88
2023-02-06T09:34:30.274Z,69.45
2023-02-06T09:36:58.542Z,69.16
2023-02-06T09:39:27.003Z,69.24
2023-02-06T09:42:00.974Z,69.60
2023-02-06T09:44:33.546Z,69.62
2023-02-06T09:47:07.186Z,69.50
2023-02-06T09:49:40.784Z,69.45
2023-02-06T09:52:14.513Z,69.36
2023-02-06T09:54:52.893Z,69.26
2023-02-06T09:57:31.323Z,69.71
2023-02-06T10:00:04.210Z,69.34
2023-02-06T10:03:08.214Z,69.59
2023-02-06T10:05:49.515Z,69.75
2023-02-06T10:08:22.487Z,69.55
2023-02-06T10:10:54.520Z,69.43
2023-02-06T10:13:32.522Z,69.79
2023-02-06T10:16:05.462Z,69.69
2023-02-06T10:18:37.398Z,69.47
2023-02-06T10:21:13.752Z,69.38
2023-02-06T10:23:51.614Z,69.27
2023-02-06T10:26:22.546Z,68.76
2023-02-06T10:28:53.652Z,68.83
2023-02-06T10:31:45.037Z,69.17
2023-02-06T10:34:30.858Z,69.26
2023-02-06T10:37:16.173Z,69.48
2023-02-06T10:39:59.542Z,69.50
2023-02-06T10:42:37.987Z,69.57
2023-02-06T10:45:20.225Z,69.58
2023-02-06T10:47:55.147Z,69.07
2023-02-06T10:50:29.710Z,69.04
2023-02-06T10:53:05.093Z,68.75
2023-02-06T10:55:43.958Z,68.02
2023-02-06T10:58:18.106Z,68.21
2023-02-06T11:00:47.242Z,66.67
2023-02-06T11:03:21.104Z,66.66
2023-02-06T11:05:50.085Z,66.44
2023-02-06T11:08:26.487Z,66.57
2023-02-06T11:10:54.796Z,66.35
2023-02-06T11:13:27.969Z,66.34
2023-02-06T11:16:01.507Z,66.23
2023-02-06T11:18:34.866Z,66.39
2023-02-06T11:21:03.671Z,66.16
2023-02-06T11:23:34.660Z,65.54
2023-02-06T11:26:10.646Z,65.40
2023-02-06T11:28:49.399Z,64.99
2023-02-06T11:31:20.775Z,64.52
2023-02-06T11:33:51.674Z,62.73
2023-02-06T11:36:25.654Z,63.50
2023-02-06T11:39:00.482Z,62.71
2023-02-06T11:41:30.298Z,61.78
2023-02-06T11:44:02.816Z,61.36
2023-02-06T11:46:35.152Z,60.78
2023-02-06T11:49:07.224Z,59.67
2023-02-06T11:51:51.489Z,59.08
2023-02-06T11:54:28.239Z,58.81
2023-02-06T11:57:03.636Z,58.27
2023-02-06T11:59:34.965Z,57.86
2023-02-06T12:02:06.998Z,57.71
2023-02-06T12:04:38.804Z,57.98
2023-02-06T12:07:16.709Z,56.83
2023-02-06T12:09:46.157Z,57.11
2023-02-06T12:12:28.151Z,57.60
2023-02-06T12:14:59.456Z,56.91
2023-02-06T12:17:33.886Z,57.54
2023-02-06T12:20:09.429Z,55.45
2023-02-06T12:22:41.465Z,55.85
2023-02-06T12:25:25.000Z,55.71
2023-02-06T12:27:54.551Z,56.37
2023-02-06T12:30:35.747Z,55.33
2023-02-06T12:33:11.076Z,52.67
2023-02-06T12:35:45.030Z,52.51
2023-02-06T12:38:21.832Z,52.13
2023-02-06T12:41:06.386Z,51.48
2023-02-06T12:43:37.035Z,53.01
2023-02-06T12:46:08.976Z,53.14
2023-02-06T12:48:45.097Z,52.60
2023-02-06T12:51:20.552Z,51.00
2023-02-06T12:53:53.191Z,50.65
2023-02-06T12:56:31.618Z,51.52
2023-02-06T12:59:12.026Z,50.88
2023-02-06T13:01:50.187Z,52.17
2023-02-06T13:04:20.746Z,51.17
2023-02-06T13:06:54.543Z,52.03
2023-02-06T13:09:27.763Z,52.09
2023-02-06T13:12:08.568Z,51.65
2023-02-06T13:14:38.284Z,51.13
2023-02-06T13:17:11.759Z,51.07
2023-02-06T13:20:03.559Z,50.34
2023-02-06T13:22:44.865Z,49.76
2023-02-06T13:25:49.663Z,48.83
2023-02-06T13:28:59.948Z,48.64
2023-02-06T13:31:34.584Z,49.35
2023-02-06T13:34:08.128Z,48.67
2023-02-06T13:36:47.733Z,48.07
2023-02-06T13:39:30.651Z,48.32
2023-02-06T13:42:03.984Z,47.39
2023-02-06T13:44:37.788Z,47.17
2023-02-06T13:47:48.886Z,47.06
2023-02-06T13:50:36.451Z,46.13
2023-02-06T13:53:21.376Z,46.60
2023-02-06T13:56:00.967Z,47.49
2023-02-06T13:58:44.428Z,47.24
2023-02-06T14:01:22.918Z,47.49
2023-02-06T14:03:52.283Z,46.19
2023-02-06T14:06:47.770Z,47.18
2023-02-06T14:09:34.081Z,48.24
2023-02-06T14:12:30.594Z,46.26
2023-02-06T14:15:09.718Z,46.60
2023-02-06T14:17:57.070Z,46.82
2023-02-06T14:20:35.329Z,46.49
2023-02-06T14:23:15.648Z,46.23
2023-02-06T14:25:56.147Z,47.16
2023-02-06T14:28:32.729Z,47.73
2023-02-06T14:31:11.606Z,47.82
2023-02-06T14:34:02.265Z,47.27
2023-02-06T14:37:03.350Z,47.11
2023-02-06T14:40:04.827Z,47.37
2023-02-06T14:43:14.641Z,46.72
2023-02-06T14:46:19.930Z,46.88
2023-02-06T14:49:26.478Z,46.00
2023-02-06T14:52:16.928Z,46.18
2023-02-06T14:58:41.468Z,46.37
2023-02-06T15:01:41.711Z,46.06
2023-02-06T15:04:38.418Z,45.88
2023-02-06T15:07:38.372Z,46.79
2023-02-06T15:10:31.104Z,46.35
2023-02-06T15:13:47.891Z,45.79
2023-02-06T15:16:32.625Z,45.72
2023-02-06T15:19:40.180Z,45.34
2023-02-06T15:22:38.562Z,45.52
2023-02-06T15:25:51.077Z,45.52
2023-02-06T15:28:35.150Z,44.57
2023-02-06T15:43:03.665Z,45.48
2023-02-06T15:45:35.908Z,45.18
2023-02-06T15:48:12.230Z,45.17
2023-02-06T15:50:40.556Z,45.03
2023-02-06T15:53:29.335Z,45.90
2023-02-06T15:55:58.723Z,46.52
2023-02-06T15:58:28.491Z,46.34
2023-02-06T16:00:59.377Z,46.61
2023-02-06T16:03:30.462Z,47.47
2023-02-06T16:05:59.370Z,47.54
2023-02-06T16:08:33.558Z,48.08
2023-02-06T16:11:26.688Z,47.79
2023-02-06T16:13:58.369Z,47.78
2023-02-06T16:16:27.839Z,48.35
2023-02-06T16:18:59.717Z,48.78
2023-02-06T16:21:30.368Z,49.05
2023-02-06T16:24:16.474Z,49.21
2023-02-06T16:26:47.954Z,50.17
2023-02-06T16:29:25.614Z,49.96
2023-02-06T16:32:00.229Z,50.42
2023-02-06T16:34:37.485Z,50.84
2023-02-06T16:37:12.033Z,51.06
2023-02-06T16:39:42.555Z,51.01
2023-02-06T16:42:15.116Z,51.47
2023-02-06T16:44:47.321Z,51.98
2023-02-06T16:47:19.492Z,52.14
2023-02-06T16:49:49.710Z,51.74
2023-02-06T16:52:21.715Z,52.38
2023-02-06T16:54:50.881Z,51.80
2023-02-06T16:57:26.094Z,52.15
2023-02-06T16:59:55.990Z,52.58
2023-02-06T17:02:24.120Z,52.24
2023-02-06T17:04:52.609Z,52.35
2023-02-06T17:07:23.956Z,52.42
2023-02-06T17:09:54.810Z,52.82
2023-02-06T17:12:23.776Z,52.70
2023-02-06T17:14:52.178Z,52.67
2023-02-06T17:17:23.735Z,52.74
2023-02-06T17:19:53.370Z,52.58
2023-02-06T17:22:22.641Z,52.89
2023-02-06T17:24:50.992Z,52.61
2023-02-06T17:27:22.239Z,52.80
2023-02-06T17:29:51.290Z,52.79
2023-02-06T17:32:22.372Z,52.97
2023-02-06T17:34:54.485Z,52.94
2023-02-06T17:37:22.976Z,52.97
2023-02-06T17:39:52.653Z,53.30
2023-02-06T17:42:23.456Z,53.29
2023-02-06T17:44:52.004Z,53.17
2023-02-06T17:47:20.662Z,52.66
2023-02-06T17:49:52.078Z,53.47
2023-02-06T17:52:20.406Z,53.86
2023-02-06T17:54:48.790Z,54.13
2023-02-06T17:57:17.060Z,53.62
2023-02-06T17:59:45.223Z,54.51
2023-02-06T18:02:14.998Z,54.32
2023-02-06T18:04:43.525Z,54.50
2023-02-06T18:07:13.514Z,54.44
2023-02-06T18:09:42.215Z,54.39
2023-02-06T18:12:10.549Z,54.24
2023-02-06T18:14:40.007Z,54.20
2023-02-06T18:17:08.671Z,53.77
2023-02-06T18:19:42.283Z,54.09
2023-02-06T18:22:12.251Z,54.32
2023-02-06T18:24:41.962Z,54.40
2023-02-06T18:27:11.098Z,54.50
2023-02-06T18:29:49.502Z,54.43
2023-02-06T18:32:18.836Z,54.15
2023-02-06T18:34:48.392Z,54.81
2023-02-06T18:37:16.975Z,54.56
2023-02-06T18:39:46.575Z,54.22
2023-02-06T18:42:32.302Z,54.69
2023-02-06T18:45:01.494Z,55.07
2023-02-06T18:47:31.707Z,54.43
2023-02-06T18:49:59.704Z,54.44
2023-02-06T18:52:27.727Z,55.15
2023-02-06T18:54:58.686Z,55.05
2023-02-06T18:57:27.557Z,55.07
2023-02-06T18:59:56.669Z,56.03
2023-02-06T19:02:25.090Z,55.90
2023-02-06T19:04:54.461Z,55.69
2023-02-06T19:07:22.676Z,54.99
2023-02-06T19:09:50.809Z,55.07
2023-02-06T19:12:20.636Z,55.05
2023-02-06T19:14:50.782Z,55.08
2023-02-06T19:17:19.269Z,55.22
2023-02-06T19:19:47.281Z,55.04
2023-02-06T19:22:15.424Z,55.09
2023-02-06T19:24:44.598Z,55.95
2023-02-06T19:27:14.000Z,55.73
2023-02-06T19:29:43.291Z,55.73
2023-02-06T19:32:11.627Z,55.07
2023-02-06T19:34:41.273Z,55.49
2023-02-06T19:37:10.801Z,55.71
2023-02-06T19:39:40.371Z,56.48
2023-02-06T19:42:10.717Z,55.77
2023-02-06T19:44:38.986Z,55.51
2023-02-06T19:47:08.926Z,55.48
2023-02-06T19:49:37.225Z,55.36
2023-02-06T19:52:06.296Z,55.94
2023-02-06T19:54:34.411Z,55.91
2023-02-06T19:57:03.146Z,55.96
2023-02-06T19:59:31.687Z,55.67
2023-02-06T20:02:02.497Z,55.79
2023-02-06T20:04:37.849Z,55.90
2023-02-06T20:07:10.249Z,55.89
2023-02-06T20:09:42.407Z,56.05
2023-02-06T20:12:13.800Z,56.63
2023-02-06T20:14:43.002Z,56.34
2023-02-06T20:17:15.359Z,56.20
2023-02-06T20:19:46.229Z,56.18
2023-02-06T20:22:16.816Z,56.12
2023-02-06T20:24:51.856Z,56.34
2023-02-06T20:27:21.867Z,56.72
2023-02-06T20:29:52.066Z,56.64
2023-02-06T20:32:46.798Z,56.58
2023-02-06T20:35:20.830Z,57.04
2023-02-06T20:37:58.552Z,56.54
2023-02-06T20:40:31.074Z,56.77
2023-02-06T20:43:03.810Z,56.95
2023-02-06T20:45:40.458Z,57.43
2023-02-06T20:48:11.871Z,57.24
2023-02-06T20:50:43.912Z,57.60
2023-02-06T20:53:14.263Z,57.62
2023-02-06T20:55:44.273Z,58.04
2023-02-06T20:58:13.886Z,57.54
2023-02-06T21:00:44.181Z,57.87
2023-02-06T21:03:17.491Z,58.15
2023-02-06T21:06:05.523Z,58.64
2023-02-06T21:08:35.600Z,57.80
2023-02-06T21:11:08.938Z,57.85
2023-02-06T21:13:43.465Z,57.88
2023-02-06T21:16:15.490Z,57.85
2023-02-06T21:18:47.335Z,57.64
2023-02-06T21:21:18.682Z,58.07
2023-02-06T21:23:48.709Z,58.00
2023-02-06T21:26:19.406Z,57.35
2023-02-06T21:28:48.783Z,58.35
2023-02-06T21:31:20.742Z,59.13
2023-02-06T21:33:52.498Z,58.56
2023-02-06T21:36:24.780Z,58.55
2023-02-06T21:38:55.084Z,57.90
2023-02-06T21:41:26.908Z,58.52
2023-02-06T21:43:56.948Z,58.35
2023-02-06T21:46:26.629Z,58.07
2023-02-06T21:48:55.948Z,58.04
2023-02-06T21:51:26.851Z,58.01
2023-02-06T21:53:56.685Z,58.44
2023-02-06T21:56:28.254Z,58.33
2023-02-06T21:58:58.140Z,58.04
2023-02-06T22:01:41.259Z,58.03
2023-02-06T22:04:16.484Z,57.62
2023-02-06T22:06:49.134Z,58.21
2023-02-06T22:09:21.034Z,57.79
2023-02-06T22:11:50.655Z,57.60
2023-02-06T22:14:20.741Z,57.78
2023-02-06T22:16:54.746Z,58.14
2023-02-06T22:19:31.752Z,57.63
2023-02-06T22:22:06.779Z,58.10
2023-02-06T22:24:37.423Z,57.94
2023-02-06T22:27:07.096Z,58.06
2023-02-06T22:29:38.910Z,57.70
2023-02-06T22:32:07.873Z,57.02
2023-02-06T22:34:36.967Z,57.06
2023-02-06T22:37:12.609Z,57.96
2023-02-06T22:39:40.729Z,58.04
2023-02-06T22:42:12.968Z,57.84
2023-02-06T22:44:43.293Z,58.62
2023-02-06T22:47:14.230Z,58.84
2023-02-06T22:49:43.304Z,59.25
2023-02-06T22:52:27.281Z,58.38
2023-02-06T22:54:56.048Z,58.60
2023-02-06T22:57:25.959Z,58.32
2023-02-06T22:59:55.505Z,58.58
2023-02-06T23:02:23.780Z,59.27
2023-02-06T23:04:52.541Z,58.75
2023-02-06T23:07:24.012Z,59.28
2023-02-06T23:09:52.734Z,59.46
2023-02-06T23:12:21.002Z,59.28
2023-02-06T23:14:49.011Z,59.04
2023-02-06T23:17:16.952Z,58.92
2023-02-06T23:19:45.046Z,58.44
2023-02-06T23:22:13.371Z,58.88
2023-02-06T23:24:42.738Z,59.38
2023-02-06T23:27:10.636Z,59.19
2023-02-06T23:29:38.754Z,59.86
2023-02-06T23:32:06.730Z,59.39
2023-02-06T23:34:39.980Z,60.05
2023-02-06T23:37:08.147Z,59.54
2023-02-06T23:39:36.296Z,59.58
2023-02-06T23:42:05.729Z,59.44
2023-02-06T23:44:33.716Z,59.00
2023-02-06T23:47:01.644Z,59.60
2023-02-06T23:49:29.789Z,59.56
2023-02-06T23:51:57.914Z,59.26
2023-02-06T23:54:25.857Z,59.45
2023-02-06T23:56:53.853Z,59.58
2023-02-06T23:59:23.448Z,59.09
